Time;durP1;ratioP1;P1;durP2;ratioP2;P2;SDS_P1;SDS_P2;PMS_P1;PMS_P2;Temp;Humidity;BMP_temperature;BMP_pressure;BME280_temperature;BME280_humidity;BME280_pressure;Samples;Min_cycle;Max_cycle;Signal;HPM_P1;HPM_P2
2021/10/01 00:00:26;;;;;;;;;;;;;;;;;;1030195;28;971;-27
2021/10/01 00:00:56;;;;;;;;;;;;;;;;;;1029971;28;1094;-28
2021/10/01 00:01:27;;;;;;;;;;;;;;;;;;1022370;29;1119;-27
2021/10/01 00:01:58;;;;;;;;;;;;;;;;;;1022265;29;890;-25
2021/10/01 00:02:28;;;;;;;;;;;;;;;;;;1022147;29;1069;-27
2021/10/01 00:02:58;;;;;;;;;;;;;;;;;;1021577;29;1455;-28
2021/10/01 00:03:29;;;;;;;;;;;;;;;;;;1022134;29;1331;-26
2021/10/01 00:04:00;;;;;;;;;;;;;;;;;;1014156;29;1096;-29
2021/10/01 00:04:31;;;;;;;;;;;;;;;;;;1010182;29;1370;-27
2021/10/01 00:05:02;;;;;;;;;;;;;;;;;;1010026;29;1084;-26
2021/10/01 00:05:33;;;;;;;;;;;;;;;;;;1002154;29;1514;-26
2021/10/01 00:06:04;;;;;;;;;;;;;;;;;;1010320;29;996;-26
2021/10/01 00:06:34;;;;;;;;;;;;;;;;;;1010265;29;1133;-30
2021/10/01 00:07:05;;;;;;;;;;;;;;;;;;1006296;29;1503;-28
2021/10/01 00:07:35;;;;;;;;;;;;;;;;;;1018367;29;1237;-27
2021/10/01 00:08:06;;;;;;;;;;;;;;;;;;1015014;29;968;-25
2021/10/01 00:08:36;;;;;;;;;;;;;;;;;;1014949;29;1275;-25
2021/10/01 00:09:07;;;;;;;;;;;;;;;;;;1015167;29;954;-26
2021/10/01 00:09:38;;;;;;;;;;;;;;;;;;1014993;29;1027;-29
2021/10/01 00:10:08;;;;;;;;;;;;;;;;;;1022205;29;902;-26
2021/10/01 00:10:39;;;;;;;;;;;;;;;;;;1017977;29;1336;-25
2021/10/01 00:11:09;;;;;;;;;;;;;;;;;;1017852;29;1432;-27
2021/10/01 00:11:43;;;;;;;;;;;;;;;;;;1022134;29;1060;-26
2021/10/01 00:12:13;;;;;;;;;;;;;;;;;;1014234;29;1496;-26
2021/10/01 00:12:43;;;;;;;;;;;;;;;;;;1018102;29;1230;-29
2021/10/01 00:13:14;;;;;;;;;;;;;;;;;;1018196;29;1028;-28
2021/10/01 00:13:45;;;;;;;;;;;;;;;;;;1025601;28;1669;-25
2021/10/01 00:14:16;;;;;;;;;;;;;;;;;;1017849;29;1327;-24
2021/10/01 00:14:46;;;;;;;;;;;;;;;;;;1017881;29;2150;-26
2021/10/01 00:15:17;;;;;;;;;;;;;;;;;;1017660;29;1228;-25
2021/10/01 00:15:47;;;;;;;;;;;;;;;;;;1006605;29;1085;-27
2021/10/01 00:16:18;;;;;;;;;;;;;;;;;;1017651;29;1177;-28
2021/10/01 00:16:49;;;;;;;;;;;;;;;;;;1018196;29;1178;-25
2021/10/01 00:17:19;;;;;;;;;;;;;;;;;;1018099;29;1114;-26
2021/10/01 00:17:50;;;;;;;;;;;;;;;;;;1010232;29;1615;-28
2021/10/01 00:18:21;;;;;;;;;;;;;;;;;;1002742;29;1046;-27
2021/10/01 00:18:52;;;;;;;;;;;;;;;;;;1005939;29;1452;-26
2021/10/01 00:19:23;;;;;;;;;;;;;;;;;;1006232;29;1206;-25
2021/10/01 00:19:54;;;;;;;;;;;;;;;;;;1007818;29;3382;-26
2021/10/01 00:20:24;;;;;;;;;;;;;;;;;;1006565;29;1550;-27
2021/10/01 00:20:55;;;;;;;;;;;;;;;;;;1010434;29;1205;-25
2021/10/01 00:21:25;;;;;;;;;;;;;;;;;;1013851;29;1390;-23
2021/10/01 00:21:56;;;;;;;;;;;;;;;;;;1014712;29;1294;-25
2021/10/01 00:22:26;;;;;;;;;;;;;;;;;;1026069;28;1076;-26
2021/10/01 00:22:57;;;;;;;;;;;;;;;;;;1026002;28;1210;-26
2021/10/01 00:23:27;;;;;;;;;;;;;;;;;;1022213;29;1158;-26
2021/10/01 00:23:58;;;;;;;;;;;;;;;;;;1022249;29;995;-27
2021/10/01 00:24:29;;;;;;;;;;;;;;;;;;1015614;29;1448;-26
2021/10/01 00:25:00;;;;;;;;;;;;;;;;;;1022509;28;1226;-27
2021/10/01 00:25:30;;;;;;;;;;;;;;;;;;1025585;28;1404;-27
2021/10/01 00:26:01;;;;;;;;;;;;;;;;;;1025897;28;1192;-28
2021/10/01 00:26:31;;;;;;;;;;;;;;;;;;1022787;28;1198;-28
2021/10/01 00:27:03;;;;;;;;;;;;;;;;;;1032919;28;1419;-26
2021/10/01 00:27:33;;;;;;;;;;;;;;;;;;1034152;28;1054;-29
2021/10/01 00:28:04;;;;;;;;;;;;;;;;;;1030162;28;1177;-29
2021/10/01 00:28:35;;;;;;;;;;;;;;;;;;1021288;29;1012;-31
2021/10/01 00:29:06;;;;;;;;;;;;;;;;;;1018290;29;938;-28
2021/10/01 00:29:36;;;;;;;;;;;;;;;;;;1017334;29;1516;-24
2021/10/01 00:30:07;;;;;;;;;;;;;;;;;;1012724;29;1280;-28
2021/10/01 00:30:37;;;;;;;;;;;;;;;;;;1022074;29;832;-26
2021/10/01 00:31:08;;;;;;;;;;;;;;;;;;1017705;29;1314;-25
2021/10/01 00:31:38;;;;;;;;;;;;;;;;;;1014588;29;1283;-28
2021/10/01 00:32:09;;;;;;;;;;;;;;;;;;1022229;29;1315;-27
2021/10/01 00:32:39;;;;;;;;;;;;;;;;;;1022049;29;1283;-26
2021/10/01 00:33:10;;;;;;;;;;;;;;;;;;1026218;28;1050;-25
2021/10/01 00:33:43;;;;;;;;;;;;;;;;;;1021202;29;1378;-26
2021/10/01 00:34:14;;;;;;;;;;;;;;;;;;1017912;29;1270;-25
2021/10/01 00:34:49;;;;;;;;;;;;;;;;;;1016757;29;1927;-27
2021/10/01 00:35:20;;;;;;;;;;;;;;;;;;1004142;29;1088;-29
2021/10/01 00:35:51;;;;;;;;;;;;;;;;;;1010266;29;956;-26
2021/10/01 00:36:21;;;;;;;;;;;;;;;;;;1006884;29;1456;-26
2021/10/01 00:36:51;;;;;;;;;;;;;;;;;;1014446;29;1173;-27
2021/10/01 00:37:22;;;;;;;;;;;;;;;;;;1014635;29;1542;-23
2021/10/01 00:37:53;;;;;;;;;;;;;;;;;;1017371;29;1296;-29
2021/10/01 00:38:25;;;;;;;;;;;;;;;;;;1018470;29;3719;-29
2021/10/01 00:38:58;;;;;;;;;;;;;;;;;;1022922;28;1497;-25
2021/10/01 00:39:29;;;;;;;;;;;;;;;;;;1009544;29;1171;-31
2021/10/01 00:39:59;;;;;;;;;;;;;;;;;;1006546;29;1059;-27
2021/10/01 00:40:30;;;;;;;;;;;;;;;;;;1006236;29;1340;-26
2021/10/01 00:41:00;;;;;;;;;;;;;;;;;;1007189;29;1130;-27
2021/10/01 00:41:31;;;;;;;;;;;;;;;;;;1009924;29;1605;-28
2021/10/01 00:42:03;;;;;;;;;;;;;;;;;;1010247;29;1218;-25
2021/10/01 00:42:33;;;;;;;;;;;;;;;;;;1002774;29;940;-25
2021/10/01 00:43:04;;;;;;;;;;;;;;;;;;1009404;29;1574;-30
2021/10/01 00:43:35;;;;;;;;;;;;;;;;;;1006288;29;1076;-27
2021/10/01 00:44:05;;;;;;;;;;;;;;;;;;1002296;29;1284;-30
2021/10/01 00:44:36;;;;;;;;;;;;;;;;;;1002352;29;1115;-28
2021/10/01 00:45:07;;;;;;;;;;;;;;;;;;1002673;29;1049;-25
2021/10/01 00:45:38;;;;;;;;;;;;;;;;;;997730;29;1550;-25
2021/10/01 00:46:09;;;;;;;;;;;;;;;;;;998744;29;1153;-28
2021/10/01 00:46:39;;;;;;;;;;;;;;;;;;998826;29;1391;-27
2021/10/01 00:47:10;;;;;;;;;;;;;;;;;;1006422;29;1072;-31
2021/10/01 00:47:41;;;;;;;;;;;;;;;;;;1017987;29;1075;-29
2021/10/01 00:48:11;;;;;;;;;;;;;;;;;;1013992;29;1182;-26
2021/10/01 00:48:42;;;;;;;;;;;;;;;;;;1009630;29;1191;-30
2021/10/01 00:49:13;;;;;;;;;;;;;;;;;;1010259;29;1132;-25
2021/10/01 00:49:43;;;;;;;;;;;;;;;;;;1005845;29;1483;-27
2021/10/01 00:50:14;;;;;;;;;;;;;;;;;;1014276;29;1062;-30
2021/10/01 00:50:45;;;;;;;;;;;;;;;;;;1013510;29;1566;-26
2021/10/01 00:51:16;;;;;;;;;;;;;;;;;;1017646;29;1315;-26
2021/10/01 00:51:47;;;;;;;;;;;;;;;;;;1013810;29;922;-28
2021/10/01 00:52:18;;;;;;;;;;;;;;;;;;1014220;29;1178;-27
2021/10/01 00:52:49;;;;;;;;;;;;;;;;;;1014157;29;1261;-28
2021/10/01 00:53:20;;;;;;;;;;;;;;;;;;1014959;29;1749;-25
2021/10/01 00:53:52;;;;;;;;;;;;;;;;;;1017644;29;1353;-27
2021/10/01 00:54:23;;;;;;;;;;;;;;;;;;1014385;29;1168;-27
2021/10/01 00:54:55;;;;;;;;;;;;;;;;;;1013669;29;1911;-28
2021/10/01 00:55:26;;;;;;;;;;;;;;;;;;1017839;29;1264;-30
2021/10/01 00:55:57;;;;;;;;;;;;;;;;;;1017210;29;1628;-26
2021/10/01 00:56:27;;;;;;;;;;;;;;;;;;1009710;29;1194;-26
2021/10/01 00:56:59;;;;;;;;;;;;;;;;;;1009969;29;1295;-27
2021/10/01 00:57:29;;;;;;;;;;;;;;;;;;1006227;29;1159;-25
2021/10/01 00:58:00;;;;;;;;;;;;;;;;;;1006480;29;1256;-26
2021/10/01 00:58:30;;;;;;;;;;;;;;;;;;1014206;29;1128;-31
2021/10/01 00:59:01;;;;;;;;;;;;;;;;;;1017350;29;1317;-27
2021/10/01 00:59:31;;;;;;;;;;;;;;;;;;1013895;29;1252;-28
2021/10/01 01:00:03;;;;;;;;;;;;;;;;;;1009878;29;1340;-27
2021/10/01 01:00:34;;;;;;;;;;;;;;;;;;1006399;29;1135;-31
2021/10/01 01:01:15;;;;;;;;;;;;;;;;;;1021600;29;921;-25
2021/10/01 01:01:46;;;;;;;;;;;;;;;;;;1023524;28;1174;-33
2021/10/01 01:02:17;;;;;;;;;;;;;;;;;;1014037;29;1170;-25
2021/10/01 01:02:48;;;;;;;;;;;;;;;;;;1005037;29;1616;-27
2021/10/01 01:03:19;;;;;;;;;;;;;;;;;;1002243;29;1193;-26
2021/10/01 01:03:53;;;;;;;;;;;;;;;;;;995567;29;1239;-24
2021/10/01 01:04:23;;;;;;;;;;;;;;;;;;1007075;29;2296;-25
2021/10/01 01:04:54;;;;;;;;;;;;;;;;;;1011018;29;1315;-33
2021/10/01 01:05:45;;;;;;;;;;;;;;;;;;1017936;29;1266;-32
2021/10/01 01:06:33;;;;;;;;;;;;;;;;;;1018839;29;1221;-27
2021/10/01 01:07:18;;;;;;;;;;;;;;;;;;1017279;29;1401;-27
2021/10/01 01:07:52;;;;;;;;;;;;;;;;;;1014433;29;1393;-25
2021/10/01 01:08:25;;;;;;;;;;;;;;;;;;1014176;29;1197;-25
2021/10/01 01:09:14;;;;;;;;;;;;;;;;;;1009844;29;1341;-27
2021/10/01 01:09:54;;;;;;;;;;;;;;;;;;1013716;29;1130;-24
2021/10/01 01:10:27;;;;;;;;;;;;;;;;;;1017704;29;1641;-29
2021/10/01 01:11:05;;;;;;;;;;;;;;;;;;1018388;29;1278;-26
2021/10/01 01:11:39;;;;;;;;;;;;;;;;;;1018001;29;1316;-26
2021/10/01 01:12:09;;;;;;;;;;;;;;;;;;1016490;29;1222;-27
2021/10/01 01:13:02;;;;;;;;;;;;;;;;;;1018308;29;1270;-25
2021/10/01 01:13:48;;;;;;;;;;;;;;;;;;1012822;29;1478;-26
2021/10/01 01:14:27;;;;;;;;;;;;;;;;;;1016211;29;1188;-25
2021/10/01 01:15:02;;;;;;;;;;;;;;;;;;1014592;29;1910;-25
2021/10/01 01:15:38;;;;;;;;;;;;;;;;;;1017652;29;1441;-27
2021/10/01 01:16:13;;;;;;;;;;;;;;;;;;1016381;29;2970;-27
2021/10/01 01:16:50;;;;;;;;;;;;;;;;;;1011048;29;1215;-25
2021/10/01 01:17:41;;;;;;;;;;;;;;;;;;1007358;29;1171;-27
2021/10/01 01:18:13;;;;;;;;;;;;;;;;;;1011332;29;1458;-25
2021/10/01 01:18:48;;;;;;;;;;;;;;;;;;1014317;29;1373;-24
2021/10/01 01:19:30;;;;;;;;;;;;;;;;;;1018742;29;871;-24
2021/10/01 01:20:10;;;;;;;;;;;;;;;;;;1012508;29;1564;-26
2021/10/01 01:20:49;;;;;;;;;;;;;;;;;;1014912;29;1253;-26
2021/10/01 01:21:27;;;;;;;;;;;;;;;;;;1011558;29;1310;-32
2021/10/01 01:22:17;;;;;;;;;;;;;;;;;;1010687;29;1055;-24
2021/10/01 01:23:05;;;;;;;;;;;;;;;;;;1009530;29;1167;-30
2021/10/01 01:23:48;;;;;;;;;;;;;;;;;;1019227;29;883;-27
2021/10/01 01:24:18;;;;;;;;;;;;;;;;;;1023345;29;1469;-28
2021/10/01 01:25:21;;;;;;;;;;;;;;;;;;1024039;28;1286;-25
2021/10/01 01:26:10;;;;;;;;;;;;;;;;;;1023400;28;1285;-25
2021/10/01 01:26:59;;;;;;;;;;;;;;;;;;1023393;29;1401;-30
2021/10/01 01:27:45;;;;;;;;;;;;;;;;;;1019281;29;1190;-24
2021/10/01 01:28:18;;;;;;;;;;;;;;;;;;1019159;29;1209;-25
2021/10/01 01:28:54;;;;;;;;;;;;;;;;;;1019230;29;1185;-24
2021/10/01 01:29:25;;;;;;;;;;;;;;;;;;1019647;29;1105;-25
2021/10/01 01:30:11;;;;;;;;;;;;;;;;;;1019508;29;1356;-27
2021/10/01 01:30:47;;;;;;;;;;;;;;;;;;1019630;29;1770;-25
2021/10/01 01:31:28;;;;;;;;;;;;;;;;;;1018876;29;1230;-28
2021/10/01 01:32:08;;;;;;;;;;;;;;;;;;1019350;29;1088;-26
2021/10/01 01:32:40;;;;;;;;;;;;;;;;;;1010262;29;1188;-27
2021/10/01 01:33:15;;;;;;;;;;;;;;;;;;1013690;29;1443;-25
2021/10/01 01:33:46;;;;;;;;;;;;;;;;;;1015289;29;1349;-24
2021/10/01 01:34:19;;;;;;;;;;;;;;;;;;1016090;29;1205;-29
2021/10/01 01:34:55;;;;;;;;;;;;;;;;;;1015288;29;1974;-24
2021/10/01 01:35:33;;;;;;;;;;;;;;;;;;1013204;29;1406;-26
2021/10/01 01:36:05;;;;;;;;;;;;;;;;;;1017471;29;3530;-29
2021/10/01 01:36:37;;;;;;;;;;;;;;;;;;1019160;29;983;-27
2021/10/01 01:37:14;;;;;;;;;;;;;;;;;;1019265;29;1679;-25
2021/10/01 01:37:53;;;;;;;;;;;;;;;;;;1019320;29;950;-28
2021/10/01 01:38:27;;;;;;;;;;;;;;;;;;1014569;29;3597;-29
2021/10/01 01:38:59;;;;;;;;;;;;;;;;;;1011490;29;1499;-27
2021/10/01 01:39:32;;;;;;;;;;;;;;;;;;1011227;29;1367;-27
2021/10/01 01:40:05;;;;;;;;;;;;;;;;;;1007448;29;1733;-26
2021/10/01 01:40:37;;;;;;;;;;;;;;;;;;1008329;29;1167;-30
2021/10/01 01:41:09;;;;;;;;;;;;;;;;;;1007664;29;1188;-26
2021/10/01 01:41:40;;;;;;;;;;;;;;;;;;1007581;29;1079;-30
2021/10/01 01:42:11;;;;;;;;;;;;;;;;;;1008091;29;1009;-27
2021/10/01 01:42:42;;;;;;;;;;;;;;;;;;1011226;29;1310;-26
2021/10/01 01:43:12;;;;;;;;;;;;;;;;;;1011685;29;1204;-27
2021/10/01 01:43:45;;;;;;;;;;;;;;;;;;1015332;29;1381;-27
2021/10/01 01:44:16;;;;;;;;;;;;;;;;;;1011790;29;1157;-27
2021/10/01 01:44:47;;;;;;;;;;;;;;;;;;1015990;29;1408;-26
2021/10/01 01:45:19;;;;;;;;;;;;;;;;;;1011408;29;1174;-25
2021/10/01 01:45:51;;;;;;;;;;;;;;;;;;1008130;29;1186;-26
2021/10/01 01:46:23;;;;;;;;;;;;;;;;;;1010299;29;1372;-28
2021/10/01 01:46:59;;;;;;;;;;;;;;;;;;1015101;29;1417;-28
2021/10/01 01:47:30;;;;;;;;;;;;;;;;;;1015870;29;1577;-26
2021/10/01 01:48:05;;;;;;;;;;;;;;;;;;1013825;29;1072;-28
2021/10/01 01:48:37;;;;;;;;;;;;;;;;;;1006511;29;1053;-24
2021/10/01 01:49:08;;;;;;;;;;;;;;;;;;1004385;29;1818;-24
2021/10/01 01:49:39;;;;;;;;;;;;;;;;;;1009497;29;1782;-28
2021/10/01 01:50:10;;;;;;;;;;;;;;;;;;1020078;28;1291;-25
2021/10/01 01:50:42;;;;;;;;;;;;;;;;;;1023520;29;1158;-24
2021/10/01 01:51:14;;;;;;;;;;;;;;;;;;1018814;29;1413;-28
2021/10/01 01:51:45;;;;;;;;;;;;;;;;;;1010697;29;1195;-25
2021/10/01 01:52:16;;;;;;;;;;;;;;;;;;1011581;29;1182;-26
2021/10/01 01:52:48;;;;;;;;;;;;;;;;;;1010519;29;1477;-27
2021/10/01 01:53:19;;;;;;;;;;;;;;;;;;999812;29;1342;-27
2021/10/01 01:53:50;;;;;;;;;;;;;;;;;;1003221;29;1213;-30
2021/10/01 01:54:22;;;;;;;;;;;;;;;;;;1003459;29;2549;-27
2021/10/01 01:54:52;;;;;;;;;;;;;;;;;;1007118;29;2003;-25
2021/10/01 01:55:23;;;;;;;;;;;;;;;;;;1007716;29;1328;-24
2021/10/01 01:55:54;;;;;;;;;;;;;;;;;;1007901;29;1466;-27
2021/10/01 01:56:26;;;;;;;;;;;;;;;;;;1015439;29;1496;-25
2021/10/01 01:56:58;;;;;;;;;;;;;;;;;;1015781;29;1136;-26
2021/10/01 01:57:29;;;;;;;;;;;;;;;;;;1023798;28;1303;-26
2021/10/01 01:58:00;;;;;;;;;;;;;;;;;;1019675;29;1190;-26
2021/10/01 01:59:09;;;;;;;;;;;;;;;;;;1006373;29;1215;-27
2021/10/01 01:59:42;;;;;;;;;;;;;;;;;;1021116;28;1272;-26
2021/10/01 02:00:14;;;;;;;;;;;;;;;;;;1019008;29;1359;-30
2021/10/01 02:00:53;;;;;;;;;;;;;;;;;;1019487;29;800;-31
2021/10/01 02:01:24;;;;;;;;;;;;;;;;;;1017897;29;1271;-26
2021/10/01 02:02:12;;;;;;;;;;;;;;;;;;1022943;28;1211;-25
2021/10/01 02:02:43;;;;;;;;;;;;;;;;;;1023466;28;1514;-27
2021/10/01 02:03:15;;;;;;;;;;;;;;;;;;1022210;29;1366;-26
2021/10/01 02:03:50;;;;;;;;;;;;;;;;;;1017762;29;1472;-27
2021/10/01 02:04:27;;;;;;;;;;;;;;;;;;1019100;29;1406;-28
2021/10/01 02:05:07;;;;;;;;;;;;;;;;;;1022112;29;1007;-25
2021/10/01 02:05:38;;;;;;;;;;;;;;;;;;1024914;28;1688;-27
2021/10/01 02:06:09;;;;;;;;;;;;;;;;;;1017762;29;1217;-24
2021/10/01 02:06:41;;;;;;;;;;;;;;;;;;1014761;29;1405;-30
2021/10/01 02:07:13;;;;;;;;;;;;;;;;;;1019092;29;1092;-25
2021/10/01 02:07:44;;;;;;;;;;;;;;;;;;1019503;29;1113;-25
2021/10/01 02:08:17;;;;;;;;;;;;;;;;;;1022826;29;1655;-29
2021/10/01 02:08:48;;;;;;;;;;;;;;;;;;1017384;29;1201;-29
2021/10/01 02:09:19;;;;;;;;;;;;;;;;;;1011139;29;1376;-23
2021/10/01 02:09:51;;;;;;;;;;;;;;;;;;1011717;29;1503;-29
2021/10/01 02:10:22;;;;;;;;;;;;;;;;;;1016164;28;1279;-31
2021/10/01 02:10:54;;;;;;;;;;;;;;;;;;1022250;28;1344;-27
2021/10/01 02:11:26;;;;;;;;;;;;;;;;;;1019350;29;1158;-26
2021/10/01 02:11:56;;;;;;;;;;;;;;;;;;1018744;29;1346;-31
2021/10/01 02:12:29;;;;;;;;;;;;;;;;;;1021655;29;3434;-27
2021/10/01 02:13:01;;;;;;;;;;;;;;;;;;1019387;29;1175;-25
2021/10/01 02:13:33;;;;;;;;;;;;;;;;;;1019720;29;1145;-25
2021/10/01 02:14:17;;;;;;;;;;;;;;;;;;1027236;28;1382;-27
2021/10/01 02:14:49;;;;;;;;;;;;;;;;;;1025372;28;1918;-27
2021/10/01 02:15:23;;;;;;;;;;;;;;;;;;1023230;29;1141;-24
2021/10/01 02:15:54;;;;;;;;;;;;;;;;;;1022179;29;1306;-26
2021/10/01 02:16:27;;;;;;;;;;;;;;;;;;1023525;28;1567;-29
2021/10/01 02:16:58;;;;;;;;;;;;;;;;;;1019136;29;1344;-26
2021/10/01 02:17:31;;;;;;;;;;;;;;;;;;1014619;29;2138;-27
2021/10/01 02:18:03;;;;;;;;;;;;;;;;;;1014660;29;1173;-25
2021/10/01 02:18:35;;;;;;;;;;;;;;;;;;1016034;29;1350;-25
2021/10/01 02:19:06;;;;;;;;;;;;;;;;;;1008199;29;1184;-25
2021/10/01 02:19:38;;;;;;;;;;;;;;;;;;1015581;29;1361;-29
2021/10/01 02:20:09;;;;;;;;;;;;;;;;;;1014523;29;1386;-26
2021/10/01 02:20:40;;;;;;;;;;;;;;;;;;1007668;29;1387;-27
2021/10/01 02:21:12;;;;;;;;;;;;;;;;;;1016094;29;1170;-26
2021/10/01 02:21:45;;;;;;;;;;;;;;;;;;1015752;29;1354;-25
2021/10/01 02:22:16;;;;;;;;;;;;;;;;;;1016228;29;1158;-29
2021/10/01 02:22:48;;;;;;;;;;;;;;;;;;1020708;29;1433;-24
2021/10/01 02:23:19;;;;;;;;;;;;;;;;;;1019539;29;1170;-24
2021/10/01 02:23:51;;;;;;;;;;;;;;;;;;1019509;29;1331;-26
2021/10/01 02:24:27;;;;;;;;;;;;;;;;;;1018466;29;1229;-24
2021/10/01 02:25:01;;;;;;;;;;;;;;;;;;1016817;29;1165;-26
2021/10/01 02:26:55;;;;;;;;;;;;;;;;;;1023309;29;1194;-27
2021/10/01 02:27:36;;;;;;;;;;;;;;;;;;1019220;29;1182;-32
2021/10/01 02:28:12;;;;;;;;;;;;;;;;;;1019795;29;1037;-27
2021/10/01 02:28:49;;;;;;;;;;;;;;;;;;1022078;29;1517;-26
2021/10/01 02:29:46;;;;;;;;;;;;;;;;;;1030031;28;1083;-26
2021/10/01 02:30:18;;;;;;;;;;;;;;;;;;1021972;29;1335;-26
2021/10/01 02:30:50;;;;;;;;;;;;;;;;;;1026356;28;1175;-25
2021/10/01 02:31:32;;;;;;;;;;;;;;;;;;1018759;29;1052;-25
2021/10/01 02:32:04;;;;;;;;;;;;;;;;;;1018770;29;1592;-27
2021/10/01 02:32:37;;;;;;;;;;;;;;;;;;1024360;28;1206;-26
2021/10/01 02:33:11;;;;;;;;;;;;;;;;;;1028873;28;974;-27
2021/10/01 02:33:44;;;;;;;;;;;;;;;;;;1019358;29;922;-27
2021/10/01 02:34:15;;;;;;;;;;;;;;;;;;1021328;29;1268;-28
2021/10/01 02:34:46;;;;;;;;;;;;;;;;;;1018263;29;1987;-26
2021/10/01 02:35:22;;;;;;;;;;;;;;;;;;1023565;28;1416;-29
2021/10/01 02:35:54;;;;;;;;;;;;;;;;;;1026859;28;3703;-27
2021/10/01 02:36:24;;;;;;;;;;;;;;;;;;1014071;29;1426;-25
2021/10/01 02:36:55;;;;;;;;;;;;;;;;;;1017910;29;1460;-25
2021/10/01 02:37:26;;;;;;;;;;;;;;;;;;1018144;29;1370;-27
2021/10/01 02:37:57;;;;;;;;;;;;;;;;;;1010885;29;1576;-25
2021/10/01 02:38:27;;;;;;;;;;;;;;;;;;1018632;29;3725;-25
2021/10/01 02:38:58;;;;;;;;;;;;;;;;;;1021324;29;1389;-25
2021/10/01 02:39:29;;;;;;;;;;;;;;;;;;1018390;29;1152;-25
2021/10/01 02:40:02;;;;;;;;;;;;;;;;;;1022685;29;890;-25
2021/10/01 02:40:32;;;;;;;;;;;;;;;;;;1018453;29;1381;-24
2021/10/01 02:41:04;;;;;;;;;;;;;;;;;;1014629;29;1474;-26
2021/10/01 02:41:34;;;;;;;;;;;;;;;;;;1015192;29;1143;-27
2021/10/01 02:42:05;;;;;;;;;;;;;;;;;;1022956;28;1321;-25
2021/10/01 02:42:36;;;;;;;;;;;;;;;;;;1022420;29;1382;-27
2021/10/01 02:43:06;;;;;;;;;;;;;;;;;;1022546;29;1375;-27
2021/10/01 02:43:37;;;;;;;;;;;;;;;;;;1022095;29;1303;-29
2021/10/01 02:44:09;;;;;;;;;;;;;;;;;;1014504;29;1293;-24
2021/10/01 02:44:41;;;;;;;;;;;;;;;;;;1014257;29;1414;-28
2021/10/01 02:45:12;;;;;;;;;;;;;;;;;;1011076;29;1471;-27
2021/10/01 02:45:43;;;;;;;;;;;;;;;;;;1011006;29;1887;-26
2021/10/01 02:46:14;;;;;;;;;;;;;;;;;;1014596;29;1027;-25
2021/10/01 02:46:47;;;;;;;;;;;;;;;;;;1015695;29;1531;-26
2021/10/01 02:47:18;;;;;;;;;;;;;;;;;;1026270;28;2227;-27
2021/10/01 02:47:49;;;;;;;;;;;;;;;;;;1022583;29;1161;-26
2021/10/01 02:48:20;;;;;;;;;;;;;;;;;;1014754;29;1341;-25
2021/10/01 02:48:51;;;;;;;;;;;;;;;;;;1013347;29;1277;-25
2021/10/01 02:49:22;;;;;;;;;;;;;;;;;;1006692;29;1295;-26
2021/10/01 02:49:58;;;;;;;;;;;;;;;;;;1007928;29;1030;-27
2021/10/01 02:50:29;;;;;;;;;;;;;;;;;;1014449;29;1115;-28
2021/10/01 02:51:02;;;;;;;;;;;;;;;;;;1011512;29;2126;-25
2021/10/01 02:51:36;;;;;;;;;;;;;;;;;;1010589;29;1547;-26
2021/10/01 02:52:19;;;;;;;;;;;;;;;;;;1015453;29;1316;-30
2021/10/01 02:52:56;;;;;;;;;;;;;;;;;;1025124;28;1004;-25
2021/10/01 02:53:37;;;;;;;;;;;;;;;;;;1022366;29;1192;-26
2021/10/01 02:54:12;;;;;;;;;;;;;;;;;;1022479;29;2063;-25
2021/10/01 02:55:02;;;;;;;;;;;;;;;;;;1015736;29;1974;-25
2021/10/01 02:55:35;;;;;;;;;;;;;;;;;;1013870;29;1113;-28
2021/10/01 02:56:12;;;;;;;;;;;;;;;;;;1025835;28;1506;-24
2021/10/01 02:56:47;;;;;;;;;;;;;;;;;;1029799;28;1210;-27
2021/10/01 02:57:20;;;;;;;;;;;;;;;;;;1014005;29;1229;-24
2021/10/01 02:57:59;;;;;;;;;;;;;;;;;;1009716;29;1178;-27
2021/10/01 02:58:33;;;;;;;;;;;;;;;;;;1006441;29;1238;-29
2021/10/01 02:59:04;;;;;;;;;;;;;;;;;;1012594;29;1206;-25
2021/10/01 02:59:37;;;;;;;;;;;;;;;;;;1016187;29;1414;-25
2021/10/01 03:00:09;;;;;;;;;;;;;;;;;;1016451;29;1528;-25
2021/10/01 03:00:39;;;;;;;;;;;;;;;;;;1011268;29;1188;-28
2021/10/01 03:01:15;;;;;;;;;;;;;;;;;;1006699;29;1245;-25
2021/10/01 03:01:47;;;;;;;;;;;;;;;;;;1008362;29;1072;-26
2021/10/01 03:02:20;;;;;;;;;;;;;;;;;;1014737;29;1187;-24
2021/10/01 03:02:51;;;;;;;;;;;;;;;;;;1012786;29;1391;-26
2021/10/01 03:03:23;;;;;;;;;;;;;;;;;;1022864;28;1523;-29
2021/10/01 03:03:56;;;;;;;;;;;;;;;;;;1019495;29;1367;-28
2021/10/01 03:04:27;;;;;;;;;;;;;;;;;;1023427;28;1301;-24
2021/10/01 03:04:58;;;;;;;;;;;;;;;;;;1026198;28;1217;-25
2021/10/01 03:05:29;;;;;;;;;;;;;;;;;;1022636;29;1282;-25
2021/10/01 03:06:01;;;;;;;;;;;;;;;;;;1018370;29;1194;-28
2021/10/01 03:06:33;;;;;;;;;;;;;;;;;;1018195;29;1547;-26
2021/10/01 03:07:04;;;;;;;;;;;;;;;;;;1021560;29;1155;-27
2021/10/01 03:07:39;;;;;;;;;;;;;;;;;;1005893;29;1193;-25
2021/10/01 03:08:11;;;;;;;;;;;;;;;;;;1010887;29;1338;-27
2021/10/01 03:08:42;;;;;;;;;;;;;;;;;;1010478;29;3192;-24
2021/10/01 03:09:15;;;;;;;;;;;;;;;;;;1011649;29;1558;-27
2021/10/01 03:09:47;;;;;;;;;;;;;;;;;;1011561;29;1283;-26
2021/10/01 03:10:18;;;;;;;;;;;;;;;;;;1022565;29;1433;-25
2021/10/01 03:10:50;;;;;;;;;;;;;;;;;;1021351;29;1347;-24
2021/10/01 03:11:23;;;;;;;;;;;;;;;;;;1011224;29;1251;-24
2021/10/01 03:11:56;;;;;;;;;;;;;;;;;;1009732;29;1240;-27
2021/10/01 03:12:27;;;;;;;;;;;;;;;;;;1007375;29;1280;-26
2021/10/01 03:12:59;;;;;;;;;;;;;;;;;;1011342;29;1238;-27
2021/10/01 03:13:30;;;;;;;;;;;;;;;;;;1014358;29;1300;-29
2021/10/01 03:14:01;;;;;;;;;;;;;;;;;;1017888;29;1617;-24
2021/10/01 03:14:33;;;;;;;;;;;;;;;;;;1018340;29;1323;-27
2021/10/01 03:15:03;;;;;;;;;;;;;;;;;;1014794;29;1991;-27
2021/10/01 03:15:36;;;;;;;;;;;;;;;;;;1019252;29;1677;-24
2021/10/01 03:16:07;;;;;;;;;;;;;;;;;;1018288;29;1194;-28
2021/10/01 03:16:38;;;;;;;;;;;;;;;;;;1019088;29;1308;-26
2021/10/01 03:17:09;;;;;;;;;;;;;;;;;;1018493;29;1564;-27
2021/10/01 03:17:41;;;;;;;;;;;;;;;;;;1014902;29;1218;-26
2021/10/01 03:18:11;;;;;;;;;;;;;;;;;;1018447;29;1211;-26
2021/10/01 03:18:42;;;;;;;;;;;;;;;;;;1018751;28;1526;-26
2021/10/01 03:19:12;;;;;;;;;;;;;;;;;;1022809;29;859;-27
2021/10/01 03:19:43;;;;;;;;;;;;;;;;;;1022488;29;1498;-28
2021/10/01 03:20:15;;;;;;;;;;;;;;;;;;1017924;29;1351;-26
2021/10/01 03:20:46;;;;;;;;;;;;;;;;;;1018440;29;1296;-29
2021/10/01 03:21:18;;;;;;;;;;;;;;;;;;1017758;29;1402;-27
2021/10/01 03:21:50;;;;;;;;;;;;;;;;;;1015236;29;1170;-24
2021/10/01 03:22:21;;;;;;;;;;;;;;;;;;1022449;29;1151;-25
2021/10/01 03:22:53;;;;;;;;;;;;;;;;;;1021876;29;1387;-25
2021/10/01 03:23:24;;;;;;;;;;;;;;;;;;1022377;29;1586;-28
2021/10/01 03:23:55;;;;;;;;;;;;;;;;;;1021804;29;1553;-26
2021/10/01 03:24:27;;;;;;;;;;;;;;;;;;1022541;28;1608;-26
2021/10/01 03:24:59;;;;;;;;;;;;;;;;;;1018615;29;1141;-26
2021/10/01 03:25:29;;;;;;;;;;;;;;;;;;1018092;29;1182;-25
2021/10/01 03:26:00;;;;;;;;;;;;;;;;;;1018563;29;1170;-27
2021/10/01 03:26:31;;;;;;;;;;;;;;;;;;1014473;29;1563;-27
2021/10/01 03:27:01;;;;;;;;;;;;;;;;;;1014487;29;1344;-25
2021/10/01 03:27:34;;;;;;;;;;;;;;;;;;1018222;29;1011;-25
2021/10/01 03:28:05;;;;;;;;;;;;;;;;;;1018802;29;1448;-25
2021/10/01 03:28:37;;;;;;;;;;;;;;;;;;1021648;29;1393;-25
2021/10/01 03:29:09;;;;;;;;;;;;;;;;;;1017707;29;1371;-28
2021/10/01 03:29:41;;;;;;;;;;;;;;;;;;1018131;29;1138;-26
2021/10/01 03:30:12;;;;;;;;;;;;;;;;;;1014766;29;1323;-27
2021/10/01 03:30:44;;;;;;;;;;;;;;;;;;1017862;29;1327;-23
2021/10/01 03:31:17;;;;;;;;;;;;;;;;;;1014464;29;1170;-27
2021/10/01 03:31:48;;;;;;;;;;;;;;;;;;1015486;29;1270;-28
2021/10/01 03:32:20;;;;;;;;;;;;;;;;;;1019416;29;1156;-27
2021/10/01 03:32:51;;;;;;;;;;;;;;;;;;1014459;29;1097;-25
2021/10/01 03:33:24;;;;;;;;;;;;;;;;;;1018137;29;1349;-26
2021/10/01 03:33:55;;;;;;;;;;;;;;;;;;1018891;29;1026;-30
2021/10/01 03:34:25;;;;;;;;;;;;;;;;;;1023034;28;1291;-26
2021/10/01 03:35:08;;;;;;;;;;;;;;;;;;1024601;28;1903;-26
2021/10/01 03:35:41;;;;;;;;;;;;;;;;;;1018105;29;1202;-26
2021/10/01 03:36:13;;;;;;;;;;;;;;;;;;1012688;29;3557;-26
2021/10/01 03:36:47;;;;;;;;;;;;;;;;;;1014359;29;1264;-26
2021/10/01 03:37:17;;;;;;;;;;;;;;;;;;1012172;29;1321;-26
2021/10/01 03:37:48;;;;;;;;;;;;;;;;;;1014183;29;1301;-26
2021/10/01 03:38:19;;;;;;;;;;;;;;;;;;1014760;29;1096;-27
2021/10/01 03:38:54;;;;;;;;;;;;;;;;;;1018389;29;1160;-25
2021/10/01 03:39:25;;;;;;;;;;;;;;;;;;1018297;29;1344;-25
2021/10/01 03:39:55;;;;;;;;;;;;;;;;;;1022185;29;1380;-27
2021/10/01 03:40:30;;;;;;;;;;;;;;;;;;1017971;29;1182;-28
2021/10/01 03:41:02;;;;;;;;;;;;;;;;;;1019083;29;1376;-25
2021/10/01 03:41:33;;;;;;;;;;;;;;;;;;1021403;29;1059;-25
2021/10/01 03:42:05;;;;;;;;;;;;;;;;;;1018110;29;1783;-26
2021/10/01 03:42:36;;;;;;;;;;;;;;;;;;1022267;29;1343;-26
2021/10/01 03:43:07;;;;;;;;;;;;;;;;;;1018026;29;1602;-24
2021/10/01 03:43:39;;;;;;;;;;;;;;;;;;1007204;29;1364;-28
2021/10/01 03:44:10;;;;;;;;;;;;;;;;;;1005985;29;1459;-25
2021/10/01 03:44:40;;;;;;;;;;;;;;;;;;1006884;29;1114;-26
2021/10/01 03:45:11;;;;;;;;;;;;;;;;;;1007148;29;1275;-23
2021/10/01 03:45:42;;;;;;;;;;;;;;;;;;1014200;29;1422;-27
2021/10/01 03:46:12;;;;;;;;;;;;;;;;;;1022381;29;1100;-24
2021/10/01 03:46:45;;;;;;;;;;;;;;;;;;1022260;29;1754;-26
2021/10/01 03:47:17;;;;;;;;;;;;;;;;;;1021774;29;1644;-25
2021/10/01 03:47:47;;;;;;;;;;;;;;;;;;1018224;29;1048;-25
2021/10/01 03:48:17;;;;;;;;;;;;;;;;;;1017775;29;1358;-25
2021/10/01 03:49:01;;;;;;;;;;;;;;;;;;1012325;29;1386;-25
2021/10/01 03:49:33;;;;;;;;;;;;;;;;;;1014545;29;1030;-24
2021/10/01 03:50:05;;;;;;;;;;;;;;;;;;1016511;29;1581;-27
2021/10/01 03:50:38;;;;;;;;;;;;;;;;;;1013934;29;1406;-25